Terminal Aerodrome Forecast
Issued by NWS Louisville, KY

Home | Current Version | Previous Version | Text Only | Print | Product List | Glossary On
Versions: 1 2 3 4 5 6 7 8 9 10 11 12 13 14 15 16
000
FTUS43 KLMK 240524
TAFSDF
TAF
KSDF 240524Z 2406/2512 17007KT P6SM BKN150 WS020/20037KT
     FM241500 18015G27KT P6SM SCT040 SCT180
     FM242200 20016G24KT P6SM VCSH BKN040 BKN180
     FM250100 25010G25KT 5SM SHRA VCTS OVC040CB
     FM250300 25010G19KT P6SM VCSH OVC035
     FM250500 26011G19KT P6SM BKN040=

USA.gov is the U.S. government's official web portal to all federal, state and local government web resources and services.